sensor_id;sensor_type;location;lat;lon;timestamp;pressure;altitude;pressure_sealevel;temperature;humidity
80335;BME280;69653;52.674;13.574;2023-07-13T00:02:04;100467.19;;;17.29;64.87
80335;BME280;69653;52.674;13.574;2023-07-13T00:04:29;100461.31;;;17.30;64.95
80335;BME280;69653;52.674;13.574;2023-07-13T00:06:55;100455.31;;;17.28;64.86
80335;BME280;69653;52.674;13.574;2023-07-13T00:09:21;100447.75;;;17.25;64.93
80335;BME280;69653;52.674;13.574;2023-07-13T00:11:52;100461.56;;;17.25;65.00
80335;BME280;69653;52.674;13.574;2023-07-13T00:14:18;100466.59;;;17.23;64.71
80335;BME280;69653;52.674;13.574;2023-07-13T00:16:43;100468.22;;;17.24;64.96
80335;BME280;69653;52.674;13.574;2023-07-13T00:19:10;100452.25;;;17.18;65.23
80335;BME280;69653;52.674;13.574;2023-07-13T00:21:35;100458.91;;;17.17;65.87
80335;BME280;69653;52.674;13.574;2023-07-13T00:24:00;100458.69;;;17.10;66.48
80335;BME280;69653;52.674;13.574;2023-07-13T00:26:26;100460.78;;;17.01;67.31
80335;BME280;69653;52.674;13.574;2023-07-13T00:28:51;100463.97;;;16.90;68.08
80335;BME280;69653;52.674;13.574;2023-07-13T00:31:16;100455.13;;;16.85;68.02
80335;BME280;69653;52.674;13.574;2023-07-13T00:33:42;100454.44;;;16.76;68.29
80335;BME280;69653;52.674;13.574;2023-07-13T00:36:09;100474.44;;;16.73;68.57
80335;BME280;69653;52.674;13.574;2023-07-13T00:38:34;100475.59;;;16.60;68.57
80335;BME280;69653;52.674;13.574;2023-07-13T00:41:00;100469.13;;;16.56;68.65
80335;BME280;69653;52.674;13.574;2023-07-13T00:43:28;100467.38;;;16.51;68.56
80335;BME280;69653;52.674;13.574;2023-07-13T00:48:21;100455.84;;;16.37;69.73
80335;BME280;69653;52.674;13.574;2023-07-13T00:50:51;100449.28;;;16.29;69.75
80335;BME280;69653;52.674;13.574;2023-07-13T00:53:17;100437.88;;;16.19;70.10
80335;BME280;69653;52.674;13.574;2023-07-13T00:55:43;100452.94;;;16.21;70.39
80335;BME280;69653;52.674;13.574;2023-07-13T00:58:09;100456.72;;;16.17;70.47
80335;BME280;69653;52.674;13.574;2023-07-13T01:00:36;100461.97;;;16.10;70.45
80335;BME280;69653;52.674;13.574;2023-07-13T01:03:04;100449.88;;;16.02;70.64
80335;BME280;69653;52.674;13.574;2023-07-13T01:05:32;100458.34;;;15.97;71.02
80335;BME280;69653;52.674;13.574;2023-07-13T01:07:58;100454.75;;;15.84;71.04
80335;BME280;69653;52.674;13.574;2023-07-13T01:10:25;100457.72;;;15.79;71.90
80335;BME280;69653;52.674;13.574;2023-07-13T01:12:51;100459.22;;;15.77;71.70
80335;BME280;69653;52.674;13.574;2023-07-13T01:15:52;100456.66;;;15.72;72.22
80335;BME280;69653;52.674;13.574;2023-07-13T01:18:27;100451.38;;;15.79;72.11
80335;BME280;69653;52.674;13.574;2023-07-13T01:21:00;100459.06;;;15.73;72.23
80335;BME280;69653;52.674;13.574;2023-07-13T01:23:27;100459.75;;;15.70;72.40
80335;BME280;69653;52.674;13.574;2023-07-13T01:25:53;100443.47;;;15.57;72.30
80335;BME280;69653;52.674;13.574;2023-07-13T01:28:19;100468.22;;;15.65;71.93
80335;BME280;69653;52.674;13.574;2023-07-13T01:30:46;100480.72;;;15.63;71.85
80335;BME280;69653;52.674;13.574;2023-07-13T01:33:13;100480.13;;;15.57;71.84
80335;BME280;69653;52.674;13.574;2023-07-13T01:35:39;100481.25;;;15.56;72.13
80335;BME280;69653;52.674;13.574;2023-07-13T01:38:05;100469.09;;;15.57;72.43
80335;BME280;69653;52.674;13.574;2023-07-13T01:40:30;100474.28;;;15.59;72.51
80335;BME280;69653;52.674;13.574;2023-07-13T01:42:56;100470.56;;;15.55;73.00
80335;BME280;69653;52.674;13.574;2023-07-13T01:45:21;100464.75;;;15.47;73.14
80335;BME280;69653;52.674;13.574;2023-07-13T01:47:47;100450.50;;;15.45;73.22
80335;BME280;69653;52.674;13.574;2023-07-13T01:50:12;100460.81;;;15.57;72.91
80335;BME280;69653;52.674;13.574;2023-07-13T01:52:38;100448.03;;;15.52;72.94
80335;BME280;69653;52.674;13.574;2023-07-13T01:55:03;100456.94;;;15.58;72.64
80335;BME280;69653;52.674;13.574;2023-07-13T01:57:29;100461.50;;;15.54;72.30
80335;BME280;69653;52.674;13.574;2023-07-13T01:59:54;100461.19;;;15.56;72.69
80335;BME280;69653;52.674;13.574;2023-07-13T02:02:19;100456.00;;;15.45;72.55
80335;BME280;69653;52.674;13.574;2023-07-13T02:04:45;100465.38;;;15.53;72.27
80335;BME280;69653;52.674;13.574;2023-07-13T02:07:10;100469.63;;;15.50;72.31
80335;BME280;69653;52.674;13.574;2023-07-13T02:09:36;100469.13;;;15.48;72.40
80335;BME280;69653;52.674;13.574;2023-07-13T02:12:01;100463.59;;;15.48;72.32
80335;BME280;69653;52.674;13.574;2023-07-13T02:14:27;100461.81;;;15.52;72.19
80335;BME280;69653;52.674;13.574;2023-07-13T02:16:52;100464.25;;;15.54;72.18
80335;BME280;69653;52.674;13.574;2023-07-13T02:19:17;100465.19;;;15.58;71.86
80335;BME280;69653;52.674;13.574;2023-07-13T02:21:43;100466.00;;;15.59;71.93
80335;BME280;69653;52.674;13.574;2023-07-13T02:24:08;100472.78;;;15.61;71.76
80335;BME280;69653;52.674;13.574;2023-07-13T02:26:34;100473.72;;;15.65;71.62
80335;BME280;69653;52.674;13.574;2023-07-13T02:28:59;100479.38;;;15.69;71.58
80335;BME280;69653;52.674;13.574;2023-07-13T02:31:24;100470.78;;;15.70;71.52
80335;BME280;69653;52.674;13.574;2023-07-13T02:33:50;100478.03;;;15.75;71.43
80335;BME280;69653;52.674;13.574;2023-07-13T02:36:15;100459.88;;;15.74;71.10
80335;BME280;69653;52.674;13.574;2023-07-13T02:38:42;100471.50;;;15.79;71.16
80335;BME280;69653;52.674;13.574;2023-07-13T02:41:09;100467.47;;;15.77;71.25
80335;BME280;69653;52.674;13.574;2023-07-13T02:43:35;100463.16;;;15.67;71.51
80335;BME280;69653;52.674;13.574;2023-07-13T02:46:01;100462.72;;;15.65;71.47
80335;BME280;69653;52.674;13.574;2023-07-13T02:48:32;100465.34;;;15.62;71.64
80335;BME280;69653;52.674;13.574;2023-07-13T02:50:57;100464.06;;;15.59;71.79
80335;BME280;69653;52.674;13.574;2023-07-13T02:53:23;100477.22;;;15.53;71.90
80335;BME280;69653;52.674;13.574;2023-07-13T02:55:48;100477.09;;;15.50;72.07
80335;BME280;69653;52.674;13.574;2023-07-13T02:58:13;100466.19;;;15.53;72.19
80335;BME280;69653;52.674;13.574;2023-07-13T03:00:43;100470.28;;;15.47;72.19
80335;BME280;69653;52.674;13.574;2023-07-13T03:03:08;100472.91;;;15.44;72.26
80335;BME280;69653;52.674;13.574;2023-07-13T03:05:34;100495.75;;;15.44;72.18
80335;BME280;69653;52.674;13.574;2023-07-13T03:07:59;100502.03;;;15.45;72.36
80335;BME280;69653;52.674;13.574;2023-07-13T03:10:24;100489.03;;;15.33;72.29
80335;BME280;69653;52.674;13.574;2023-07-13T03:12:50;100501.44;;;15.39;72.46
80335;BME280;69653;52.674;13.574;2023-07-13T03:15:16;100503.94;;;15.32;72.30
80335;BME280;69653;52.674;13.574;2023-07-13T03:17:41;100512.66;;;15.34;72.65
80335;BME280;69653;52.674;13.574;2023-07-13T03:20:07;100495.97;;;15.31;72.38
80335;BME280;69653;52.674;13.574;2023-07-13T03:22:32;100502.56;;;15.38;72.46
80335;BME280;69653;52.674;13.574;2023-07-13T03:24:58;100496.47;;;15.33;72.35
80335;BME280;69653;52.674;13.574;2023-07-13T03:27:23;100505.81;;;15.40;72.19
80335;BME280;69653;52.674;13.574;2023-07-13T03:29:48;100505.00;;;15.40;72.10
80335;BME280;69653;52.674;13.574;2023-07-13T03:32:13;100495.59;;;15.41;72.14
80335;BME280;69653;52.674;13.574;2023-07-13T03:34:39;100504.19;;;15.39;72.26
80335;BME280;69653;52.674;13.574;2023-07-13T03:37:04;100511.78;;;15.72;71.10
80335;BME280;69653;52.674;13.574;2023-07-13T03:39:30;100506.66;;;15.82;70.33
80335;BME280;69653;52.674;13.574;2023-07-13T03:41:55;100493.63;;;15.71;70.37
80335;BME280;69653;52.674;13.574;2023-07-13T03:44:20;100505.53;;;15.63;71.06
80335;BME280;69653;52.674;13.574;2023-07-13T03:46:46;100518.38;;;15.59;71.19
80335;BME280;69653;52.674;13.574;2023-07-13T03:49:11;100524.88;;;15.54;71.40
80335;BME280;69653;52.674;13.574;2023-07-13T03:51:37;100519.88;;;15.47;71.57
80335;BME280;69653;52.674;13.574;2023-07-13T03:54:03;100512.66;;;15.34;72.12
80335;BME280;69653;52.674;13.574;2023-07-13T03:56:29;100517.16;;;15.39;72.13
80335;BME280;69653;52.674;13.574;2023-07-13T03:58:55;100528.97;;;15.48;72.18
80335;BME280;69653;52.674;13.574;2023-07-13T04:01:22;100525.22;;;15.52;72.10
80335;BME280;69653;52.674;13.574;2023-07-13T04:04:11;100517.22;;;15.60;71.81
80335;BME280;69653;52.674;13.574;2023-07-13T04:06:37;100523.34;;;15.65;71.52
80335;BME280;69653;52.674;13.574;2023-07-13T04:09:03;100527.50;;;15.71;71.48
80335;BME280;69653;52.674;13.574;2023-07-13T04:11:32;100521.88;;;15.68;71.32
80335;BME280;69653;52.674;13.574;2023-07-13T04:13:58;100526.38;;;15.72;71.20
80335;BME280;69653;52.674;13.574;2023-07-13T04:16:24;100544.00;;;15.80;71.25
80335;BME280;69653;52.674;13.574;2023-07-13T04:18:51;100522.28;;;15.99;70.26
80335;BME280;69653;52.674;13.574;2023-07-13T04:21:20;100531.75;;;16.10;70.13
80335;BME280;69653;52.674;13.574;2023-07-13T04:23:45;100548.94;;;16.28;69.36
80335;BME280;69653;52.674;13.574;2023-07-13T04:26:11;100539.22;;;16.42;68.81
80335;BME280;69653;52.674;13.574;2023-07-13T04:28:36;100542.44;;;16.65;68.12
80335;BME280;69653;52.674;13.574;2023-07-13T04:31:05;100539.72;;;16.89;67.48
80335;BME280;69653;52.674;13.574;2023-07-13T04:33:31;100543.53;;;17.21;65.96
80335;BME280;69653;52.674;13.574;2023-07-13T04:35:56;100533.25;;;17.46;65.26
80335;BME280;69653;52.674;13.574;2023-07-13T04:38:24;100544.66;;;17.69;64.47
80335;BME280;69653;52.674;13.574;2023-07-13T04:40:50;100535.75;;;17.87;63.65
80335;BME280;69653;52.674;13.574;2023-07-13T04:43:16;100550.06;;;18.17;63.23
80335;BME280;69653;52.674;13.574;2023-07-13T04:45:41;100557.91;;;18.27;62.37
80335;BME280;69653;52.674;13.574;2023-07-13T04:48:07;100555.97;;;18.43;61.72
80335;BME280;69653;52.674;13.574;2023-07-13T04:50:32;100553.69;;;18.61;61.03
80335;BME280;69653;52.674;13.574;2023-07-13T04:52:57;100553.81;;;18.80;60.32
80335;BME280;69653;52.674;13.574;2023-07-13T04:55:24;100563.78;;;19.13;59.24
80335;BME280;69653;52.674;13.574;2023-07-13T04:57:49;100570.56;;;19.31;58.59
80335;BME280;69653;52.674;13.574;2023-07-13T05:00:15;100566.63;;;19.48;58.07
80335;BME280;69653;52.674;13.574;2023-07-13T05:02:43;100560.63;;;19.61;57.52
80335;BME280;69653;52.674;13.574;2023-07-13T05:05:09;100551.91;;;19.78;56.99
80335;BME280;69653;52.674;13.574;2023-07-13T05:07:34;100564.19;;;19.97;56.56
80335;BME280;69653;52.674;13.574;2023-07-13T05:10:00;100555.81;;;20.12;56.35
80335;BME280;69653;52.674;13.574;2023-07-13T05:12:26;100565.97;;;20.24;56.02
80335;BME280;69653;52.674;13.574;2023-07-13T05:14:52;100561.88;;;20.37;55.43
80335;BME280;69653;52.674;13.574;2023-07-13T05:17:19;100562.97;;;20.52;54.79
80335;BME280;69653;52.674;13.574;2023-07-13T05:19:45;100570.56;;;20.55;55.17
80335;BME280;69653;52.674;13.574;2023-07-13T05:22:10;100568.09;;;20.69;54.53
80335;BME280;69653;52.674;13.574;2023-07-13T05:24:35;100574.31;;;20.85;55.02
80335;BME280;69653;52.674;13.574;2023-07-13T05:27:01;100572.59;;;21.00;54.13
80335;BME280;69653;52.674;13.574;2023-07-13T05:29:29;100578.88;;;21.16;53.38
80335;BME280;69653;52.674;13.574;2023-07-13T05:31:57;100578.81;;;21.12;53.58
80335;BME280;69653;52.674;13.574;2023-07-13T05:34:23;100568.25;;;21.21;53.11
80335;BME280;69653;52.674;13.574;2023-07-13T05:36:49;100580.88;;;21.42;53.14
80335;BME280;69653;52.674;13.574;2023-07-13T05:39:15;100580.06;;;21.64;52.26
80335;BME280;69653;52.674;13.574;2023-07-13T05:41:40;100578.47;;;21.66;52.36
80335;BME280;69653;52.674;13.574;2023-07-13T05:44:05;100581.06;;;21.78;51.38
80335;BME280;69653;52.674;13.574;2023-07-13T05:46:31;100583.81;;;22.01;51.52
80335;BME280;69653;52.674;13.574;2023-07-13T05:48:57;100595.16;;;22.19;50.56
80335;BME280;69653;52.674;13.574;2023-07-13T05:51:25;100590.50;;;22.27;50.04
80335;BME280;69653;52.674;13.574;2023-07-13T05:53:50;100582.66;;;22.36;49.75
80335;BME280;69653;52.674;13.574;2023-07-13T05:56:15;100585.91;;;22.41;50.19
80335;BME280;69653;52.674;13.574;2023-07-13T05:58:41;100595.59;;;22.51;49.84
80335;BME280;69653;52.674;13.574;2023-07-13T06:01:11;100590.94;;;22.62;49.66
80335;BME280;69653;52.674;13.574;2023-07-13T06:03:37;100588.00;;;22.81;49.32
80335;BME280;69653;52.674;13.574;2023-07-13T06:06:06;100596.25;;;23.11;48.91
80335;BME280;69653;52.674;13.574;2023-07-13T06:08:33;100595.13;;;23.19;48.74
80335;BME280;69653;52.674;13.574;2023-07-13T06:11:06;100582.38;;;23.18;48.84
80335;BME280;69653;52.674;13.574;2023-07-13T06:13:33;100588.50;;;23.38;48.48
80335;BME280;69653;52.674;13.574;2023-07-13T06:15:58;100597.25;;;23.33;48.41
80335;BME280;69653;52.674;13.574;2023-07-13T06:18:24;100594.88;;;23.35;47.95
80335;BME280;69653;52.674;13.574;2023-07-13T06:20:49;100592.22;;;23.52;47.42
80335;BME280;69653;52.674;13.574;2023-07-13T06:23:14;100582.03;;;23.74;47.53
80335;BME280;69653;52.674;13.574;2023-07-13T06:25:40;100582.53;;;23.90;46.81
80335;BME280;69653;52.674;13.574;2023-07-13T06:28:05;100591.50;;;24.21;45.90
80335;BME280;69653;52.674;13.574;2023-07-13T06:30:30;100588.00;;;24.38;46.60
80335;BME280;69653;52.674;13.574;2023-07-13T06:32:57;100588.09;;;24.70;44.97
80335;BME280;69653;52.674;13.574;2023-07-13T06:35:22;100582.13;;;24.68;44.49
80335;BME280;69653;52.674;13.574;2023-07-13T06:37:47;100584.94;;;24.78;44.53
80335;BME280;69653;52.674;13.574;2023-07-13T06:40:13;100580.59;;;24.98;43.93
80335;BME280;69653;52.674;13.574;2023-07-13T06:42:38;100579.41;;;25.21;43.35
80335;BME280;69653;52.674;13.574;2023-07-13T06:45:04;100584.63;;;25.36;43.12
80335;BME280;69653;52.674;13.574;2023-07-13T06:47:29;100581.44;;;25.34;42.65
80335;BME280;69653;52.674;13.574;2023-07-13T06:49:54;100589.44;;;25.61;42.16
80335;BME280;69653;52.674;13.574;2023-07-13T06:52:20;100587.81;;;25.74;41.75
80335;BME280;69653;52.674;13.574;2023-07-13T06:54:45;100589.81;;;25.66;41.80
80335;BME280;69653;52.674;13.574;2023-07-13T06:57:10;100589.78;;;25.80;41.45
80335;BME280;69653;52.674;13.574;2023-07-13T06:59:36;100588.59;;;25.88;41.54
80335;BME280;69653;52.674;13.574;2023-07-13T07:02:01;100570.91;;;26.05;40.81
80335;BME280;69653;52.674;13.574;2023-07-13T07:04:27;100587.72;;;26.13;40.46
80335;BME280;69653;52.674;13.574;2023-07-13T07:06:52;100568.41;;;26.39;40.59
80335;BME280;69653;52.674;13.574;2023-07-13T07:09:17;100577.25;;;26.38;39.56
80335;BME280;69653;52.674;13.574;2023-07-13T07:11:43;100573.63;;;26.41;39.80
80335;BME280;69653;52.674;13.574;2023-07-13T07:14:08;100570.03;;;26.37;39.24
80335;BME280;69653;52.674;13.574;2023-07-13T07:16:34;100578.50;;;26.16;39.60
80335;BME280;69653;52.674;13.574;2023-07-13T07:18:59;100567.28;;;26.16;39.04
80335;BME280;69653;52.674;13.574;2023-07-13T07:21:25;100575.31;;;26.21;39.17
80335;BME280;69653;52.674;13.574;2023-07-13T07:23:51;100584.94;;;26.13;39.52
80335;BME280;69653;52.674;13.574;2023-07-13T07:26:17;100574.91;;;26.15;38.17
80335;BME280;69653;52.674;13.574;2023-07-13T07:28:43;100572.88;;;26.30;37.79
80335;BME280;69653;52.674;13.574;2023-07-13T07:31:08;100578.28;;;26.72;37.51
80335;BME280;69653;52.674;13.574;2023-07-13T07:33:34;100578.50;;;26.99;36.97
80335;BME280;69653;52.674;13.574;2023-07-13T07:36:00;100581.94;;;27.28;36.94
80335;BME280;69653;52.674;13.574;2023-07-13T07:38:25;100589.78;;;27.43;36.14
80335;BME280;69653;52.674;13.574;2023-07-13T07:40:52;100594.72;;;27.80;35.69
80335;BME280;69653;52.674;13.574;2023-07-13T07:43:17;100586.53;;;27.93;35.22
80335;BME280;69653;52.674;13.574;2023-07-13T07:45:44;100586.78;;;28.43;33.75
80335;BME280;69653;52.674;13.574;2023-07-13T07:48:10;100584.03;;;28.39;33.45
80335;BME280;69653;52.674;13.574;2023-07-13T07:50:36;100594.25;;;28.57;32.72
80335;BME280;69653;52.674;13.574;2023-07-13T07:53:02;100592.69;;;28.52;32.86
80335;BME280;69653;52.674;13.574;2023-07-13T07:55:28;100589.75;;;28.32;33.30
80335;BME280;69653;52.674;13.574;2023-07-13T07:57:55;100591.72;;;28.35;33.11
80335;BME280;69653;52.674;13.574;2023-07-13T08:00:22;100579.28;;;28.33;33.45
80335;BME280;69653;52.674;13.574;2023-07-13T08:02:47;100579.78;;;28.85;32.34
80335;BME280;69653;52.674;13.574;2023-07-13T08:05:13;100582.50;;;29.19;31.47
80335;BME280;69653;52.674;13.574;2023-07-13T08:07:39;100592.41;;;29.54;30.20
80335;BME280;69653;52.674;13.574;2023-07-13T08:10:08;100594.69;;;29.62;28.38
80335;BME280;69653;52.674;13.574;2023-07-13T08:12:37;100603.88;;;29.43;28.85
80335;BME280;69653;52.674;13.574;2023-07-13T08:15:03;100599.38;;;29.46;29.13
80335;BME280;69653;52.674;13.574;2023-07-13T08:17:29;100594.78;;;29.32;27.56
80335;BME280;69653;52.674;13.574;2023-07-13T08:19:54;100607.53;;;29.63;28.76
80335;BME280;69653;52.674;13.574;2023-07-13T08:22:20;100584.56;;;29.88;27.17
80335;BME280;69653;52.674;13.574;2023-07-13T08:24:45;100589.88;;;29.82;26.31
80335;BME280;69653;52.674;13.574;2023-07-13T08:27:12;100588.19;;;29.65;27.16
80335;BME280;69653;52.674;13.574;2023-07-13T08:29:38;100593.50;;;29.60;27.51
80335;BME280;69653;52.674;13.574;2023-07-13T08:32:05;100594.00;;;29.55;28.10
80335;BME280;69653;52.674;13.574;2023-07-13T08:34:31;100598.66;;;29.42;28.03
80335;BME280;69653;52.674;13.574;2023-07-13T08:36:56;100599.03;;;29.17;26.91
80335;BME280;69653;52.674;13.574;2023-07-13T08:39:21;100606.06;;;29.05;27.30
80335;BME280;69653;52.674;13.574;2023-07-13T08:41:50;100605.78;;;28.69;28.85
80335;BME280;69653;52.674;13.574;2023-07-13T08:44:27;100608.44;;;28.46;28.75
80335;BME280;69653;52.674;13.574;2023-07-13T08:46:56;100606.34;;;28.20;29.01
80335;BME280;69653;52.674;13.574;2023-07-13T08:49:24;100609.72;;;28.04;30.54
80335;BME280;69653;52.674;13.574;2023-07-13T08:52:02;100610.50;;;28.08;31.54
80335;BME280;69653;52.674;13.574;2023-07-13T08:54:39;100611.50;;;28.59;31.37
80335;BME280;69653;52.674;13.574;2023-07-13T08:57:21;100615.59;;;28.54;30.84
80335;BME280;69653;52.674;13.574;2023-07-13T08:59:49;100619.69;;;28.46;31.19
80335;BME280;69653;52.674;13.574;2023-07-13T09:02:34;100625.88;;;28.68;30.72
80335;BME280;69653;52.674;13.574;2023-07-13T09:08:18;100613.78;;;29.98;27.99
80335;BME280;69653;52.674;13.574;2023-07-13T09:10:59;100606.34;;;30.27;27.49
80335;BME280;69653;52.674;13.574;2023-07-13T09:13:49;100618.66;;;30.56;27.01
80335;BME280;69653;52.674;13.574;2023-07-13T09:16:17;100616.03;;;30.85;26.28
80335;BME280;69653;52.674;13.574;2023-07-13T09:18:56;100621.97;;;31.26;25.79
80335;BME280;69653;52.674;13.574;2023-07-13T09:21:29;100620.81;;;31.40;26.32
80335;BME280;69653;52.674;13.574;2023-07-13T09:23:59;100623.47;;;30.95;26.85
80335;BME280;69653;52.674;13.574;2023-07-13T09:26:28;100623.31;;;30.47;27.54
80335;BME280;69653;52.674;13.574;2023-07-13T09:28:58;100612.28;;;30.52;27.58
80335;BME280;69653;52.674;13.574;2023-07-13T09:31:33;100622.38;;;30.53;27.54
80335;BME280;69653;52.674;13.574;2023-07-13T09:34:00;100623.88;;;30.94;27.18
80335;BME280;69653;52.674;13.574;2023-07-13T09:36:30;100610.81;;;30.84;25.79
80335;BME280;69653;52.674;13.574;2023-07-13T09:41:45;100613.47;;;29.69;25.73
80335;BME280;69653;52.674;13.574;2023-07-13T09:44:15;100618.88;;;29.36;26.73
80335;BME280;69653;52.674;13.574;2023-07-13T09:46:47;100613.78;;;29.98;26.48
80335;BME280;69653;52.674;13.574;2023-07-13T09:49:17;100608.69;;;30.32;25.58
80335;BME280;69653;52.674;13.574;2023-07-13T09:51:42;100608.78;;;30.48;25.11
80335;BME280;69653;52.674;13.574;2023-07-13T09:54:27;100626.63;;;31.17;24.28
80335;BME280;69653;52.674;13.574;2023-07-13T09:56:57;100621.59;;;31.41;24.58
80335;BME280;69653;52.674;13.574;2023-07-13T09:59:32;100608.03;;;30.64;25.04
80335;BME280;69653;52.674;13.574;2023-07-13T10:01:58;100600.78;;;30.23;25.67
80335;BME280;69653;52.674;13.574;2023-07-13T10:04:32;100604.91;;;29.99;26.23
80335;BME280;69653;52.674;13.574;2023-07-13T10:07:06;100608.38;;;29.60;26.61
80335;BME280;69653;52.674;13.574;2023-07-13T10:09:32;100615.25;;;29.36;27.52
80335;BME280;69653;52.674;13.574;2023-07-13T10:11:57;100622.75;;;28.89;28.11
80335;BME280;69653;52.674;13.574;2023-07-13T10:14:23;100606.50;;;28.43;28.75
80335;BME280;69653;52.674;13.574;2023-07-13T10:17:00;100610.16;;;27.58;30.15
80335;BME280;69653;52.674;13.574;2023-07-13T10:19:31;100615.06;;;27.51;30.80
80335;BME280;69653;52.674;13.574;2023-07-13T10:24:49;100612.28;;;27.40;31.49
80335;BME280;69653;52.674;13.574;2023-07-13T10:27:23;100605.81;;;26.91;31.53
80335;BME280;69653;52.674;13.574;2023-07-13T10:30:15;100621.66;;;27.23;31.79
80335;BME280;69653;52.674;13.574;2023-07-13T10:32:42;100608.00;;;27.25;31.43
80335;BME280;69653;52.674;13.574;2023-07-13T10:35:12;100627.28;;;27.23;31.64
80335;BME280;69653;52.674;13.574;2023-07-13T10:38:06;100625.91;;;27.45;30.97
80335;BME280;69653;52.674;13.574;2023-07-13T10:40:41;100631.16;;;27.46;30.90
80335;BME280;69653;52.674;13.574;2023-07-13T10:43:20;100624.13;;;27.14;30.92
80335;BME280;69653;52.674;13.574;2023-07-13T10:45:49;100626.59;;;27.05;32.05
80335;BME280;69653;52.674;13.574;2023-07-13T10:48:15;100613.13;;;26.75;33.24
80335;BME280;69653;52.674;13.574;2023-07-13T10:50:44;100618.31;;;26.73;33.33
80335;BME280;69653;52.674;13.574;2023-07-13T10:53:22;100626.97;;;26.23;33.62
80335;BME280;69653;52.674;13.574;2023-07-13T10:58:45;100620.59;;;25.98;34.72
80335;BME280;69653;52.674;13.574;2023-07-13T11:01:14;100613.63;;;26.56;34.21
80335;BME280;69653;52.674;13.574;2023-07-13T11:06:13;100613.13;;;27.85;30.45
80335;BME280;69653;52.674;13.574;2023-07-13T11:18:44;100612.31;;;29.16;25.82
80335;BME280;69653;52.674;13.574;2023-07-13T11:21:14;100616.13;;;29.33;25.58
80335;BME280;69653;52.674;13.574;2023-07-13T11:23:44;100609.38;;;29.23;24.64
80335;BME280;69653;52.674;13.574;2023-07-13T11:29:27;100599.06;;;30.10;24.65
80335;BME280;69653;52.674;13.574;2023-07-13T11:32:00;100607.59;;;30.26;23.54
80335;BME280;69653;52.674;13.574;2023-07-13T11:34:30;100605.03;;;29.69;24.56
80335;BME280;69653;52.674;13.574;2023-07-13T11:36:57;100604.16;;;29.95;24.17
80335;BME280;69653;52.674;13.574;2023-07-13T11:39:31;100595.84;;;30.08;24.63
80335;BME280;69653;52.674;13.574;2023-07-13T11:42:00;100594.06;;;30.37;24.70
80335;BME280;69653;52.674;13.574;2023-07-13T11:44:28;100587.44;;;30.47;24.99
80335;BME280;69653;52.674;13.574;2023-07-13T11:46:56;100589.56;;;30.20;25.23
80335;BME280;69653;52.674;13.574;2023-07-13T11:49:24;100592.53;;;30.52;24.55
80335;BME280;69653;52.674;13.574;2023-07-13T11:51:50;100576.41;;;30.53;23.52
80335;BME280;69653;52.674;13.574;2023-07-13T11:54:33;100603.91;;;30.29;24.36
80335;BME280;69653;52.674;13.574;2023-07-13T11:59:52;100592.34;;;30.43;23.66
80335;BME280;69653;52.674;13.574;2023-07-13T12:02:31;100590.75;;;30.62;24.06
80335;BME280;69653;52.674;13.574;2023-07-13T12:04:58;100585.91;;;30.78;24.25
80335;BME280;69653;52.674;13.574;2023-07-13T12:07:29;100592.91;;;30.74;24.04
80335;BME280;69653;52.674;13.574;2023-07-13T12:10:01;100590.59;;;30.10;23.74
80335;BME280;69653;52.674;13.574;2023-07-13T12:12:28;100590.88;;;29.96;24.45
80335;BME280;69653;52.674;13.574;2023-07-13T12:14:54;100593.41;;;30.10;24.16
80335;BME280;69653;52.674;13.574;2023-07-13T12:17:22;100582.13;;;30.29;23.88
80335;BME280;69653;52.674;13.574;2023-07-13T12:19:49;100566.38;;;30.32;24.20
80335;BME280;69653;52.674;13.574;2023-07-13T12:22:16;100578.06;;;30.30;24.07
80335;BME280;69653;52.674;13.574;2023-07-13T12:24:43;100584.72;;;30.40;23.65
80335;BME280;69653;52.674;13.574;2023-07-13T12:27:21;100573.69;;;30.29;23.63
80335;BME280;69653;52.674;13.574;2023-07-13T12:29:52;100589.88;;;30.45;24.05
80335;BME280;69653;52.674;13.574;2023-07-13T12:32:24;100591.88;;;29.62;26.76
80335;BME280;69653;52.674;13.574;2023-07-13T12:34:55;100590.63;;;29.63;26.06
80335;BME280;69653;52.674;13.574;2023-07-13T12:37:21;100577.25;;;29.21;26.75
80335;BME280;69653;52.674;13.574;2023-07-13T12:39:48;100580.91;;;29.18;26.45
80335;BME280;69653;52.674;13.574;2023-07-13T12:42:21;100585.88;;;28.83;27.35
80335;BME280;69653;52.674;13.574;2023-07-13T12:44:51;100580.22;;;28.53;27.82
80335;BME280;69653;52.674;13.574;2023-07-13T12:47:20;100584.06;;;28.66;26.95
80335;BME280;69653;52.674;13.574;2023-07-13T12:49:52;100582.03;;;28.70;26.70
80335;BME280;69653;52.674;13.574;2023-07-13T12:52:24;100583.22;;;28.73;27.35
80335;BME280;69653;52.674;13.574;2023-07-13T12:55:07;100569.97;;;28.66;25.77
80335;BME280;69653;52.674;13.574;2023-07-13T12:57:51;100573.13;;;28.75;26.09
80335;BME280;69653;52.674;13.574;2023-07-13T13:02:51;100578.47;;;28.63;26.88
80335;BME280;69653;52.674;13.574;2023-07-13T13:05:17;100585.59;;;28.74;25.78
80335;BME280;69653;52.674;13.574;2023-07-13T13:07:43;100576.50;;;28.60;24.83
80335;BME280;69653;52.674;13.574;2023-07-13T13:10:12;100579.81;;;28.55;25.25
80335;BME280;69653;52.674;13.574;2023-07-13T13:12:39;100575.00;;;28.52;25.89
80335;BME280;69653;52.674;13.574;2023-07-13T13:15:04;100558.66;;;28.43;26.58
80335;BME280;69653;52.674;13.574;2023-07-13T13:17:32;100580.41;;;28.73;25.86
80335;BME280;69653;52.674;13.574;2023-07-13T13:19:57;100584.16;;;28.89;25.75